sensor_id;sensor_type;location;lat;lon;timestamp;P1;durP1;ratioP1;P2;durP2;ratioP2
26407;SDS011;14583;43.604;1.364;2024-02-15T00:00:53;3.75;;;1.85;;
26407;SDS011;14583;43.604;1.364;2024-02-15T00:03:19;6.10;;;1.88;;
26407;SDS011;14583;43.604;1.364;2024-02-15T00:05:46;3.38;;;1.67;;
26407;SDS011;14583;43.604;1.364;2024-02-15T00:08:12;3.30;;;1.80;;
26407;SDS011;14583;43.604;1.364;2024-02-15T00:10:40;3.15;;;1.92;;
26407;SDS011;14583;43.604;1.364;2024-02-15T00:13:05;5.22;;;2.10;;
26407;SDS011;14583;43.604;1.364;2024-02-15T00:15:31;5.97;;;2.60;;
26407;SDS011;14583;43.604;1.364;2024-02-15T00:17:59;8.05;;;2.42;;
26407;SDS011;14583;43.604;1.364;2024-02-15T00:20:25;5.25;;;2.33;;
26407;SDS011;14583;43.604;1.364;2024-02-15T00:22:51;4.22;;;2.63;;
26407;SDS011;14583;43.604;1.364;2024-02-15T00:25:17;8.80;;;3.20;;
26407;SDS011;14583;43.604;1.364;2024-02-15T00:27:44;5.45;;;2.50;;
26407;SDS011;14583;43.604;1.364;2024-02-15T00:30:10;11.93;;;3.08;;
26407;SDS011;14583;43.604;1.364;2024-02-15T00:32:36;6.55;;;2.75;;
26407;SDS011;14583;43.604;1.364;2024-02-15T00:35:03;8.70;;;3.05;;
26407;SDS011;14583;43.604;1.364;2024-02-15T00:37:34;7.53;;;3.00;;
26407;SDS011;14583;43.604;1.364;2024-02-15T00:40:03;7.68;;;3.50;;
26407;SDS011;14583;43.604;1.364;2024-02-15T00:42:32;5.03;;;2.72;;
26407;SDS011;14583;43.604;1.364;2024-02-15T00:44:58;5.80;;;3.13;;
26407;SDS011;14583;43.604;1.364;2024-02-15T00:47:24;6.80;;;3.28;;
26407;SDS011;14583;43.604;1.364;2024-02-15T00:49:49;5.85;;;3.40;;
26407;SDS011;14583;43.604;1.364;2024-02-15T00:52:15;8.35;;;3.50;;
26407;SDS011;14583;43.604;1.364;2024-02-15T00:54:43;7.65;;;3.70;;
26407;SDS011;14583;43.604;1.364;2024-02-15T00:57:09;9.55;;;3.70;;
26407;SDS011;14583;43.604;1.364;2024-02-15T00:59:36;9.40;;;3.72;;
26407;SDS011;14583;43.604;1.364;2024-02-15T01:02:02;7.80;;;3.80;;
26407;SDS011;14583;43.604;1.364;2024-02-15T01:04:28;5.55;;;3.75;;
26407;SDS011;14583;43.604;1.364;2024-02-15T01:06:54;10.38;;;4.05;;
26407;SDS011;14583;43.604;1.364;2024-02-15T01:09:21;9.02;;;4.13;;
26407;SDS011;14583;43.604;1.364;2024-02-15T01:11:47;8.35;;;4.50;;
26407;SDS011;14583;43.604;1.364;2024-02-15T01:14:13;8.52;;;4.40;;
26407;SDS011;14583;43.604;1.364;2024-02-15T01:16:40;7.60;;;4.35;;
26407;SDS011;14583;43.604;1.364;2024-02-15T01:19:06;9.25;;;4.80;;
26407;SDS011;14583;43.604;1.364;2024-02-15T01:21:32;11.10;;;5.70;;
26407;SDS011;14583;43.604;1.364;2024-02-15T01:23:58;9.57;;;5.20;;
26407;SDS011;14583;43.604;1.364;2024-02-15T01:26:25;8.88;;;5.15;;
26407;SDS011;14583;43.604;1.364;2024-02-15T01:28:52;11.30;;;5.95;;
26407;SDS011;14583;43.604;1.364;2024-02-15T01:31:18;11.68;;;5.85;;
26407;SDS011;14583;43.604;1.364;2024-02-15T01:33:44;7.43;;;5.60;;
26407;SDS011;14583;43.604;1.364;2024-02-15T01:36:16;11.43;;;6.35;;
26407;SDS011;14583;43.604;1.364;2024-02-15T01:38:42;13.77;;;6.70;;
26407;SDS011;14583;43.604;1.364;2024-02-15T01:41:08;9.02;;;6.50;;
26407;SDS011;14583;43.604;1.364;2024-02-15T01:43:37;11.27;;;6.50;;
26407;SDS011;14583;43.604;1.364;2024-02-15T01:46:07;10.55;;;6.18;;
26407;SDS011;14583;43.604;1.364;2024-02-15T01:48:35;11.45;;;6.70;;
26407;SDS011;14583;43.604;1.364;2024-02-15T01:51:02;13.75;;;6.22;;
26407;SDS011;14583;43.604;1.364;2024-02-15T01:53:29;11.82;;;6.20;;
26407;SDS011;14583;43.604;1.364;2024-02-15T01:55:55;15.20;;;6.22;;
26407;SDS011;14583;43.604;1.364;2024-02-15T01:58:22;10.02;;;6.07;;
26407;SDS011;14583;43.604;1.364;2024-02-15T02:00:50;12.50;;;6.18;;
26407;SDS011;14583;43.604;1.364;2024-02-15T02:03:17;11.82;;;6.53;;
26407;SDS011;14583;43.604;1.364;2024-02-15T02:05:44;13.23;;;6.60;;
26407;SDS011;14583;43.604;1.364;2024-02-15T02:08:10;10.23;;;6.93;;
26407;SDS011;14583;43.604;1.364;2024-02-15T02:10:38;14.45;;;7.30;;
26407;SDS011;14583;43.604;1.364;2024-02-15T02:13:05;10.63;;;7.47;;
26407;SDS011;14583;43.604;1.364;2024-02-15T02:15:31;15.70;;;7.88;;
26407;SDS011;14583;43.604;1.364;2024-02-15T02:17:58;12.18;;;6.80;;
26407;SDS011;14583;43.604;1.364;2024-02-15T02:20:25;12.30;;;7.68;;
26407;SDS011;14583;43.604;1.364;2024-02-15T02:22:52;12.93;;;7.55;;
26407;SDS011;14583;43.604;1.364;2024-02-15T02:25:22;12.50;;;7.00;;
26407;SDS011;14583;43.604;1.364;2024-02-15T02:27:51;11.55;;;7.68;;
26407;SDS011;14583;43.604;1.364;2024-02-15T02:30:18;12.85;;;7.05;;
26407;SDS011;14583;43.604;1.364;2024-02-15T02:32:47;12.68;;;6.85;;
26407;SDS011;14583;43.604;1.364;2024-02-15T02:35:13;11.68;;;6.45;;
26407;SDS011;14583;43.604;1.364;2024-02-15T02:37:41;12.00;;;6.32;;
26407;SDS011;14583;43.604;1.364;2024-02-15T02:40:08;12.27;;;6.35;;
26407;SDS011;14583;43.604;1.364;2024-02-15T02:45:26;14.93;;;5.72;;
26407;SDS011;14583;43.604;1.364;2024-02-15T02:47:51;10.00;;;5.32;;
26407;SDS011;14583;43.604;1.364;2024-02-15T02:50:18;9.68;;;5.28;;
26407;SDS011;14583;43.604;1.364;2024-02-15T02:52:45;9.85;;;5.32;;
26407;SDS011;14583;43.604;1.364;2024-02-15T02:55:13;12.38;;;5.30;;
26407;SDS011;14583;43.604;1.364;2024-02-15T02:57:40;9.65;;;4.82;;
26407;SDS011;14583;43.604;1.364;2024-02-15T03:00:07;9.13;;;4.43;;
26407;SDS011;14583;43.604;1.364;2024-02-15T03:02:38;8.00;;;3.92;;
26407;SDS011;14583;43.604;1.364;2024-02-15T03:05:04;7.40;;;4.45;;
26407;SDS011;14583;43.604;1.364;2024-02-15T03:07:34;9.50;;;4.85;;
26407;SDS011;14583;43.604;1.364;2024-02-15T03:10:01;11.50;;;5.10;;
26407;SDS011;14583;43.604;1.364;2024-02-15T03:12:33;7.90;;;5.05;;
26407;SDS011;14583;43.604;1.364;2024-02-15T03:15:02;14.77;;;5.53;;
26407;SDS011;14583;43.604;1.364;2024-02-15T03:17:29;10.90;;;5.30;;
26407;SDS011;14583;43.604;1.364;2024-02-15T03:19:56;9.07;;;5.75;;
26407;SDS011;14583;43.604;1.364;2024-02-15T03:22:23;12.35;;;5.82;;
26407;SDS011;14583;43.604;1.364;2024-02-15T03:24:50;12.88;;;5.97;;
26407;SDS011;14583;43.604;1.364;2024-02-15T03:27:16;12.75;;;6.05;;
26407;SDS011;14583;43.604;1.364;2024-02-15T03:29:41;13.52;;;6.05;;
26407;SDS011;14583;43.604;1.364;2024-02-15T03:32:07;12.73;;;6.00;;
26407;SDS011;14583;43.604;1.364;2024-02-15T03:34:34;13.90;;;6.65;;
26407;SDS011;14583;43.604;1.364;2024-02-15T03:37:00;14.57;;;6.78;;
26407;SDS011;14583;43.604;1.364;2024-02-15T03:39:29;11.07;;;7.25;;
26407;SDS011;14583;43.604;1.364;2024-02-15T03:41:55;11.32;;;6.85;;
26407;SDS011;14583;43.604;1.364;2024-02-15T03:44:22;15.38;;;7.43;;
26407;SDS011;14583;43.604;1.364;2024-02-15T03:46:51;17.13;;;7.80;;
26407;SDS011;14583;43.604;1.364;2024-02-15T03:49:20;15.35;;;7.90;;
26407;SDS011;14583;43.604;1.364;2024-02-15T03:51:47;18.95;;;8.73;;
26407;SDS011;14583;43.604;1.364;2024-02-15T03:54:14;15.52;;;8.98;;
26407;SDS011;14583;43.604;1.364;2024-02-15T03:56:46;12.20;;;8.50;;
26407;SDS011;14583;43.604;1.364;2024-02-15T03:59:16;14.35;;;9.23;;
26407;SDS011;14583;43.604;1.364;2024-02-15T04:01:43;17.33;;;8.98;;
26407;SDS011;14583;43.604;1.364;2024-02-15T04:04:08;12.15;;;8.98;;
26407;SDS011;14583;43.604;1.364;2024-02-15T04:06:34;13.77;;;9.25;;
26407;SDS011;14583;43.604;1.364;2024-02-15T04:09:01;14.05;;;9.15;;
26407;SDS011;14583;43.604;1.364;2024-02-15T04:11:27;12.90;;;8.80;;
26407;SDS011;14583;43.604;1.364;2024-02-15T04:13:52;15.23;;;9.18;;
26407;SDS011;14583;43.604;1.364;2024-02-15T04:16:18;13.30;;;8.75;;
26407;SDS011;14583;43.604;1.364;2024-02-15T04:18:43;12.68;;;8.20;;
26407;SDS011;14583;43.604;1.364;2024-02-15T04:21:10;13.07;;;8.02;;
26407;SDS011;14583;43.604;1.364;2024-02-15T04:23:36;20.73;;;9.32;;
26407;SDS011;14583;43.604;1.364;2024-02-15T04:26:02;15.35;;;7.93;;
26407;SDS011;14583;43.604;1.364;2024-02-15T04:28:28;18.30;;;8.75;;
26407;SDS011;14583;43.604;1.364;2024-02-15T04:30:54;14.10;;;8.00;;
26407;SDS011;14583;43.604;1.364;2024-02-15T04:33:20;12.02;;;7.47;;
26407;SDS011;14583;43.604;1.364;2024-02-15T04:35:46;12.85;;;8.50;;
26407;SDS011;14583;43.604;1.364;2024-02-15T04:38:13;10.38;;;7.10;;
26407;SDS011;14583;43.604;1.364;2024-02-15T04:40:39;10.38;;;6.93;;
26407;SDS011;14583;43.604;1.364;2024-02-15T04:43:05;11.95;;;6.15;;
26407;SDS011;14583;43.604;1.364;2024-02-15T04:45:33;9.45;;;6.18;;
26407;SDS011;14583;43.604;1.364;2024-02-15T04:48:00;9.48;;;5.63;;
26407;SDS011;14583;43.604;1.364;2024-02-15T04:50:27;9.65;;;5.55;;
26407;SDS011;14583;43.604;1.364;2024-02-15T04:52:54;11.18;;;5.43;;
26407;SDS011;14583;43.604;1.364;2024-02-15T04:55:20;9.23;;;5.15;;
26407;SDS011;14583;43.604;1.364;2024-02-15T04:57:47;8.05;;;5.72;;
26407;SDS011;14583;43.604;1.364;2024-02-15T05:00:14;11.50;;;5.95;;
26407;SDS011;14583;43.604;1.364;2024-02-15T05:02:41;12.20;;;5.88;;
26407;SDS011;14583;43.604;1.364;2024-02-15T05:05:08;12.35;;;5.93;;
26407;SDS011;14583;43.604;1.364;2024-02-15T05:07:34;14.50;;;6.05;;
26407;SDS011;14583;43.604;1.364;2024-02-15T05:10:03;10.30;;;6.05;;
26407;SDS011;14583;43.604;1.364;2024-02-15T05:12:31;10.65;;;6.53;;
26407;SDS011;14583;43.604;1.364;2024-02-15T05:14:58;17.10;;;7.05;;
26407;SDS011;14583;43.604;1.364;2024-02-15T05:17:24;10.30;;;6.05;;
26407;SDS011;14583;43.604;1.364;2024-02-15T05:19:50;11.95;;;6.32;;
26407;SDS011;14583;43.604;1.364;2024-02-15T05:22:15;11.50;;;6.30;;
26407;SDS011;14583;43.604;1.364;2024-02-15T05:24:43;10.00;;;6.13;;
26407;SDS011;14583;43.604;1.364;2024-02-15T05:27:09;14.13;;;6.85;;
26407;SDS011;14583;43.604;1.364;2024-02-15T05:29:34;11.40;;;6.00;;
26407;SDS011;14583;43.604;1.364;2024-02-15T05:32:01;9.07;;;6.60;;
26407;SDS011;14583;43.604;1.364;2024-02-15T05:34:27;12.05;;;6.10;;
26407;SDS011;14583;43.604;1.364;2024-02-15T05:36:56;12.32;;;6.60;;
26407;SDS011;14583;43.604;1.364;2024-02-15T05:39:21;8.77;;;6.10;;
26407;SDS011;14583;43.604;1.364;2024-02-15T05:41:48;12.15;;;6.03;;
26407;SDS011;14583;43.604;1.364;2024-02-15T05:44:21;9.48;;;6.82;;
26407;SDS011;14583;43.604;1.364;2024-02-15T05:46:47;10.15;;;5.82;;
26407;SDS011;14583;43.604;1.364;2024-02-15T05:49:13;10.80;;;6.72;;
26407;SDS011;14583;43.604;1.364;2024-02-15T05:51:42;10.93;;;5.32;;
26407;SDS011;14583;43.604;1.364;2024-02-15T05:54:08;8.77;;;5.80;;
26407;SDS011;14583;43.604;1.364;2024-02-15T05:56:34;8.98;;;5.60;;
26407;SDS011;14583;43.604;1.364;2024-02-15T05:58:59;10.07;;;5.97;;
26407;SDS011;14583;43.604;1.364;2024-02-15T06:01:27;10.90;;;6.22;;
26407;SDS011;14583;43.604;1.364;2024-02-15T06:03:54;10.68;;;5.93;;
26407;SDS011;14583;43.604;1.364;2024-02-15T06:06:21;8.27;;;6.13;;
26407;SDS011;14583;43.604;1.364;2024-02-15T06:08:47;9.48;;;6.43;;
26407;SDS011;14583;43.604;1.364;2024-02-15T06:11:18;8.60;;;6.22;;
26407;SDS011;14583;43.604;1.364;2024-02-15T06:13:45;9.25;;;5.78;;
26407;SDS011;14583;43.604;1.364;2024-02-15T06:16:11;11.52;;;6.88;;
26407;SDS011;14583;43.604;1.364;2024-02-15T06:18:37;9.25;;;6.40;;
26407;SDS011;14583;43.604;1.364;2024-02-15T06:21:03;8.38;;;6.45;;
26407;SDS011;14583;43.604;1.364;2024-02-15T06:23:29;12.43;;;5.30;;
26407;SDS011;14583;43.604;1.364;2024-02-15T06:25:56;10.15;;;6.15;;
26407;SDS011;14583;43.604;1.364;2024-02-15T06:28:26;12.25;;;6.80;;
26407;SDS011;14583;43.604;1.364;2024-02-15T06:31:11;9.15;;;6.68;;
26407;SDS011;14583;43.604;1.364;2024-02-15T06:33:55;10.60;;;6.25;;
26407;SDS011;14583;43.604;1.364;2024-02-15T06:36:40;10.00;;;6.47;;
26407;SDS011;14583;43.604;1.364;2024-02-15T06:39:30;12.57;;;6.47;;
26407;SDS011;14583;43.604;1.364;2024-02-15T06:42:14;9.80;;;6.35;;
26407;SDS011;14583;43.604;1.364;2024-02-15T06:44:44;9.88;;;6.50;;
26407;SDS011;14583;43.604;1.364;2024-02-15T06:47:11;10.38;;;6.90;;
26407;SDS011;14583;43.604;1.364;2024-02-15T06:49:40;9.02;;;6.45;;
26407;SDS011;14583;43.604;1.364;2024-02-15T06:52:09;9.75;;;6.40;;
26407;SDS011;14583;43.604;1.364;2024-02-15T06:54:39;9.88;;;6.30;;
26407;SDS011;14583;43.604;1.364;2024-02-15T06:57:06;12.40;;;5.88;;
26407;SDS011;14583;43.604;1.364;2024-02-15T06:59:33;8.02;;;5.97;;
26407;SDS011;14583;43.604;1.364;2024-02-15T07:02:07;8.02;;;5.25;;
26407;SDS011;14583;43.604;1.364;2024-02-15T07:04:33;8.98;;;5.28;;
26407;SDS011;14583;43.604;1.364;2024-02-15T07:06:59;7.40;;;4.95;;
26407;SDS011;14583;43.604;1.364;2024-02-15T07:09:26;15.23;;;5.60;;
26407;SDS011;14583;43.604;1.364;2024-02-15T07:11:52;10.43;;;5.30;;
26407;SDS011;14583;43.604;1.364;2024-02-15T07:14:18;6.88;;;5.00;;
26407;SDS011;14583;43.604;1.364;2024-02-15T07:16:48;6.63;;;4.93;;
26407;SDS011;14583;43.604;1.364;2024-02-15T07:19:14;12.30;;;5.38;;
26407;SDS011;14583;43.604;1.364;2024-02-15T07:21:41;9.80;;;5.88;;
26407;SDS011;14583;43.604;1.364;2024-02-15T07:24:07;9.20;;;5.90;;
26407;SDS011;14583;43.604;1.364;2024-02-15T07:26:33;10.02;;;6.10;;
26407;SDS011;14583;43.604;1.364;2024-02-15T07:29:01;8.32;;;5.63;;
26407;SDS011;14583;43.604;1.364;2024-02-15T07:31:31;7.85;;;5.50;;
26407;SDS011;14583;43.604;1.364;2024-02-15T07:33:58;12.63;;;5.95;;
26407;SDS011;14583;43.604;1.364;2024-02-15T07:36:24;11.63;;;5.95;;
26407;SDS011;14583;43.604;1.364;2024-02-15T07:38:51;8.70;;;5.18;;
26407;SDS011;14583;43.604;1.364;2024-02-15T07:41:28;8.73;;;6.28;;
26407;SDS011;14583;43.604;1.364;2024-02-15T07:43:54;9.82;;;6.07;;
26407;SDS011;14583;43.604;1.364;2024-02-15T07:46:20;8.07;;;4.93;;
26407;SDS011;14583;43.604;1.364;2024-02-15T07:48:47;10.32;;;5.53;;
26407;SDS011;14583;43.604;1.364;2024-02-15T07:51:16;9.90;;;5.38;;
26407;SDS011;14583;43.604;1.364;2024-02-15T07:53:45;6.80;;;5.78;;
26407;SDS011;14583;43.604;1.364;2024-02-15T07:56:12;7.78;;;5.25;;
26407;SDS011;14583;43.604;1.364;2024-02-15T07:58:42;10.00;;;5.68;;
26407;SDS011;14583;43.604;1.364;2024-02-15T08:01:15;8.68;;;5.25;;
26407;SDS011;14583;43.604;1.364;2024-02-15T08:03:46;9.02;;;5.30;;
26407;SDS011;14583;43.604;1.364;2024-02-15T08:06:13;7.50;;;4.70;;
26407;SDS011;14583;43.604;1.364;2024-02-15T08:08:43;6.60;;;4.47;;
26407;SDS011;14583;43.604;1.364;2024-02-15T08:11:13;7.13;;;4.72;;
26407;SDS011;14583;43.604;1.364;2024-02-15T08:13:43;8.60;;;4.78;;
26407;SDS011;14583;43.604;1.364;2024-02-15T08:16:17;9.20;;;4.85;;
26407;SDS011;14583;43.604;1.364;2024-02-15T08:18:44;8.38;;;4.90;;
26407;SDS011;14583;43.604;1.364;2024-02-15T08:21:11;9.50;;;4.93;;
26407;SDS011;14583;43.604;1.364;2024-02-15T08:23:37;8.75;;;5.20;;
26407;SDS011;14583;43.604;1.364;2024-02-15T08:26:03;11.45;;;5.63;;
26407;SDS011;14583;43.604;1.364;2024-02-15T08:28:29;9.95;;;5.22;;
26407;SDS011;14583;43.604;1.364;2024-02-15T08:30:55;7.97;;;5.05;;
26407;SDS011;14583;43.604;1.364;2024-02-15T08:33:23;7.70;;;5.68;;
26407;SDS011;14583;43.604;1.364;2024-02-15T08:35:49;11.68;;;6.10;;
26407;SDS011;14583;43.604;1.364;2024-02-15T08:38:16;8.20;;;5.40;;
26407;SDS011;14583;43.604;1.364;2024-02-15T08:40:46;7.43;;;5.50;;
26407;SDS011;14583;43.604;1.364;2024-02-15T08:43:12;9.20;;;5.40;;
26407;SDS011;14583;43.604;1.364;2024-02-15T08:45:39;7.63;;;5.03;;
26407;SDS011;14583;43.604;1.364;2024-02-15T08:48:05;6.32;;;4.00;;
26407;SDS011;14583;43.604;1.364;2024-02-15T08:50:31;7.07;;;4.53;;
26407;SDS011;14583;43.604;1.364;2024-02-15T08:52:56;9.30;;;4.43;;
26407;SDS011;14583;43.604;1.364;2024-02-15T08:55:22;10.80;;;4.93;;
26407;SDS011;14583;43.604;1.364;2024-02-15T08:57:52;6.68;;;4.10;;
26407;SDS011;14583;43.604;1.364;2024-02-15T09:00:19;6.90;;;4.20;;
26407;SDS011;14583;43.604;1.364;2024-02-15T09:02:46;7.85;;;4.22;;
26407;SDS011;14583;43.604;1.364;2024-02-15T09:05:12;8.10;;;4.43;;
26407;SDS011;14583;43.604;1.364;2024-02-15T09:07:42;6.72;;;4.40;;
26407;SDS011;14583;43.604;1.364;2024-02-15T09:10:09;7.43;;;4.78;;
26407;SDS011;14583;43.604;1.364;2024-02-15T09:12:44;6.43;;;4.53;;
26407;SDS011;14583;43.604;1.364;2024-02-15T09:15:14;6.10;;;4.22;;
26407;SDS011;14583;43.604;1.364;2024-02-15T09:17:40;7.35;;;4.68;;
26407;SDS011;14583;43.604;1.364;2024-02-15T09:20:08;7.25;;;5.80;;
26407;SDS011;14583;43.604;1.364;2024-02-15T09:23:00;7.90;;;4.70;;
26407;SDS011;14583;43.604;1.364;2024-02-15T09:25:29;7.03;;;4.43;;
26407;SDS011;14583;43.604;1.364;2024-02-15T09:27:56;7.25;;;4.93;;
26407;SDS011;14583;43.604;1.364;2024-02-15T09:30:22;6.93;;;4.32;;
26407;SDS011;14583;43.604;1.364;2024-02-15T09:32:49;7.00;;;4.10;;
26407;SDS011;14583;43.604;1.364;2024-02-15T09:35:15;9.75;;;4.70;;
26407;SDS011;14583;43.604;1.364;2024-02-15T09:37:44;7.13;;;4.80;;
26407;SDS011;14583;43.604;1.364;2024-02-15T09:40:13;8.65;;;4.90;;
26407;SDS011;14583;43.604;1.364;2024-02-15T09:42:41;6.57;;;4.50;;
26407;SDS011;14583;43.604;1.364;2024-02-15T09:45:09;7.10;;;4.32;;
26407;SDS011;14583;43.604;1.364;2024-02-15T09:47:38;8.27;;;4.60;;
26407;SDS011;14583;43.604;1.364;2024-02-15T09:50:07;7.10;;;4.25;;
26407;SDS011;14583;43.604;1.364;2024-02-15T09:52:36;8.30;;;4.82;;
26407;SDS011;14583;43.604;1.364;2024-02-15T09:55:05;12.73;;;5.45;;
26407;SDS011;14583;43.604;1.364;2024-02-15T09:57:38;6.95;;;4.53;;
26407;SDS011;14583;43.604;1.364;2024-02-15T10:00:04;9.60;;;4.70;;
26407;SDS011;14583;43.604;1.364;2024-02-15T10:02:32;9.48;;;4.80;;
26407;SDS011;14583;43.604;1.364;2024-02-15T10:05:03;7.72;;;4.85;;
26407;SDS011;14583;43.604;1.364;2024-02-15T10:07:29;7.88;;;4.78;;
26407;SDS011;14583;43.604;1.364;2024-02-15T10:09:55;7.93;;;5.22;;
26407;SDS011;14583;43.604;1.364;2024-02-15T10:12:21;10.05;;;5.32;;
26407;SDS011;14583;43.604;1.364;2024-02-15T10:14:48;11.02;;;5.03;;
26407;SDS011;14583;43.604;1.364;2024-02-15T10:17:14;10.00;;;6.25;;
26407;SDS011;14583;43.604;1.364;2024-02-15T10:19:42;9.27;;;5.63;;
26407;SDS011;14583;43.604;1.364;2024-02-15T10:22:10;11.65;;;5.82;;
26407;SDS011;14583;43.604;1.364;2024-02-15T10:24:36;8.30;;;5.18;;
26407;SDS011;14583;43.604;1.364;2024-02-15T10:27:05;13.07;;;5.90;;
26407;SDS011;14583;43.604;1.364;2024-02-15T10:29:35;11.57;;;6.13;;
26407;SDS011;14583;43.604;1.364;2024-02-15T10:32:02;8.98;;;6.15;;
26407;SDS011;14583;43.604;1.364;2024-02-15T10:34:29;9.02;;;6.30;;
26407;SDS011;14583;43.604;1.364;2024-02-15T10:39:46;7.78;;;5.38;;
26407;SDS011;14583;43.604;1.364;2024-02-15T10:42:32;9.82;;;5.63;;
26407;SDS011;14583;43.604;1.364;2024-02-15T10:45:04;9.10;;;5.07;;
26407;SDS011;14583;43.604;1.364;2024-02-15T10:47:33;9.70;;;4.72;;
26407;SDS011;14583;43.604;1.364;2024-02-15T10:50:02;11.07;;;5.05;;
26407;SDS011;14583;43.604;1.364;2024-02-15T10:52:30;10.27;;;4.30;;
26407;SDS011;14583;43.604;1.364;2024-02-15T10:55:01;4.32;;;3.30;;
26407;SDS011;14583;43.604;1.364;2024-02-15T10:57:31;5.93;;;3.70;;
26407;SDS011;14583;43.604;1.364;2024-02-15T10:59:58;6.97;;;3.60;;
26407;SDS011;14583;43.604;1.364;2024-02-15T11:02:37;6.03;;;3.00;;
26407;SDS011;14583;43.604;1.364;2024-02-15T11:05:05;7.30;;;3.33;;
26407;SDS011;14583;43.604;1.364;2024-02-15T11:07:39;5.05;;;2.97;;
26407;SDS011;14583;43.604;1.364;2024-02-15T11:10:08;6.50;;;3.22;;
26407;SDS011;14583;43.604;1.364;2024-02-15T11:12:36;8.13;;;3.17;;
26407;SDS011;14583;43.604;1.364;2024-02-15T11:15:02;6.65;;;3.13;;
26407;SDS011;14583;43.604;1.364;2024-02-15T11:20:05;5.97;;;3.30;;
26407;SDS011;14583;43.604;1.364;2024-02-15T11:22:36;5.53;;;3.30;;
26407;SDS011;14583;43.604;1.364;2024-02-15T11:25:03;7.05;;;3.80;;
26407;SDS011;14583;43.604;1.364;2024-02-15T11:27:37;9.30;;;3.92;;
26407;SDS011;14583;43.604;1.364;2024-02-15T11:30:04;6.18;;;3.58;;
26407;SDS011;14583;43.604;1.364;2024-02-15T11:32:48;8.18;;;3.60;;
26407;SDS011;14583;43.604;1.364;2024-02-15T11:35:19;6.78;;;3.45;;
26407;SDS011;14583;43.604;1.364;2024-02-15T11:42:42;8.13;;;3.90;;
26407;SDS011;14583;43.604;1.364;2024-02-15T11:45:08;7.75;;;3.60;;
26407;SDS011;14583;43.604;1.364;2024-02-15T11:47:38;8.00;;;3.50;;
26407;SDS011;14583;43.604;1.364;2024-02-15T11:50:09;6.07;;;3.33;;
26407;SDS011;14583;43.604;1.364;2024-02-15T11:52:43;7.30;;;3.17;;
26407;SDS011;14583;43.604;1.364;2024-02-15T11:55:14;6.03;;;3.42;;
26407;SDS011;14583;43.604;1.364;2024-02-15T12:00:30;6.85;;;3.63;;
26407;SDS011;14583;43.604;1.364;2024-02-15T12:03:16;6.35;;;2.90;;
26407;SDS011;14583;43.604;1.364;2024-02-15T12:06:01;8.90;;;3.38;;
26407;SDS011;14583;43.604;1.364;2024-02-15T12:08:46;7.90;;;3.58;;
26407;SDS011;14583;43.604;1.364;2024-02-15T12:11:31;9.00;;;3.55;;
26407;SDS011;14583;43.604;1.364;2024-02-15T12:14:16;6.38;;;3.40;;
26407;SDS011;14583;43.604;1.364;2024-02-15T12:17:01;11.73;;;3.47;;
26407;SDS011;14583;43.604;1.364;2024-02-15T12:19:50;9.27;;;3.20;;
26407;SDS011;14583;43.604;1.364;2024-02-15T12:22:32;5.28;;;3.03;;
26407;SDS011;14583;43.604;1.364;2024-02-15T12:25:07;6.63;;;3.33;;
26407;SDS011;14583;43.604;1.364;2024-02-15T12:27:39;9.60;;;3.33;;
26407;SDS011;14583;43.604;1.364;2024-02-15T12:30:18;8.82;;;3.00;;
26407;SDS011;14583;43.604;1.364;2024-02-15T12:32:51;7.85;;;3.50;;
26407;SDS011;14583;43.604;1.364;2024-02-15T12:35:21;5.15;;;3.28;;
26407;SDS011;14583;43.604;1.364;2024-02-15T12:38:00;5.95;;;3.50;;
26407;SDS011;14583;43.604;1.364;2024-02-15T12:40:36;9.70;;;3.40;;
26407;SDS011;14583;43.604;1.364;2024-02-15T12:43:08;9.93;;;3.20;;
26407;SDS011;14583;43.604;1.364;2024-02-15T12:45:38;8.88;;;3.60;;
26407;SDS011;14583;43.604;1.364;2024-02-15T12:48:06;5.18;;;3.10;;
26407;SDS011;14583;43.604;1.364;2024-02-15T12:50:33;5.93;;;2.97;;
26407;SDS011;14583;43.604;1.364;2024-02-15T12:53:00;6.07;;;3.20;;
26407;SDS011;14583;43.604;1.364;2024-02-15T12:55:29;6.97;;;3.28;;
26407;SDS011;14583;43.604;1.364;2024-02-15T12:57:59;9.80;;;3.92;;
26407;SDS011;14583;43.604;1.364;2024-02-15T13:00:29;5.65;;;3.10;;
26407;SDS011;14583;43.604;1.364;2024-02-15T13:03:01;5.30;;;3.03;;
26407;SDS011;14583;43.604;1.364;2024-02-15T13:05:29;7.05;;;3.08;;
26407;SDS011;14583;43.604;1.364;2024-02-15T13:07:56;7.57;;;2.85;;
26407;SDS011;14583;43.604;1.364;2024-02-15T13:10:27;6.32;;;2.92;;
26407;SDS011;14583;43.604;1.364;2024-02-15T13:12:54;5.82;;;2.55;;
26407;SDS011;14583;43.604;1.364;2024-02-15T13:15:21;6.20;;;3.10;;
26407;SDS011;14583;43.604;1.364;2024-02-15T13:17:51;10.10;;;3.17;;
26407;SDS011;14583;43.604;1.364;2024-02-15T13:20:21;5.03;;;2.90;;
26407;SDS011;14583;43.604;1.364;2024-02-15T13:23:06;7.10;;;3.35;;
26407;SDS011;14583;43.604;1.364;2024-02-15T13:25:37;7.78;;;3.08;;
26407;SDS011;14583;43.604;1.364;2024-02-15T13:28:05;5.43;;;3.03;;
26407;SDS011;14583;43.604;1.364;2024-02-15T13:30:31;5.50;;;3.22;;
26407;SDS011;14583;43.604;1.364;2024-02-15T13:32:57;4.78;;;3.10;;
26407;SDS011;14583;43.604;1.364;2024-02-15T13:35:23;7.03;;;2.85;;
26407;SDS011;14583;43.604;1.364;2024-02-15T13:37:50;8.27;;;2.88;;
26407;SDS011;14583;43.604;1.364;2024-02-15T13:40:22;8.15;;;2.80;;
26407;SDS011;14583;43.604;1.364;2024-02-15T13:42:51;10.38;;;3.58;;
26407;SDS011;14583;43.604;1.364;2024-02-15T13:45:21;5.63;;;2.80;;
26407;SDS011;14583;43.604;1.364;2024-02-15T13:47:48;4.90;;;2.53;;
26407;SDS011;14583;43.604;1.364;2024-02-15T13:50:18;6.55;;;2.70;;
26407;SDS011;14583;43.604;1.364;2024-02-15T13:52:44;9.07;;;3.30;;
26407;SDS011;14583;43.604;1.364;2024-02-15T13:55:11;7.00;;;4.05;;
26407;SDS011;14583;43.604;1.364;2024-02-15T13:57:38;13.50;;;3.97;;
26407;SDS011;14583;43.604;1.364;2024-02-15T14:00:06;6.45;;;3.17;;
26407;SDS011;14583;43.604;1.364;2024-02-15T14:02:46;10.23;;;3.40;;
26407;SDS011;14583;43.604;1.364;2024-02-15T14:05:16;7.45;;;2.70;;
26407;SDS011;14583;43.604;1.364;2024-02-15T14:07:49;6.22;;;2.70;;
26407;SDS011;14583;43.604;1.364;2024-02-15T14:10:17;6.63;;;3.15;;
26407;SDS011;14583;43.604;1.364;2024-02-15T14:12:48;6.85;;;3.05;;
26407;SDS011;14583;43.604;1.364;2024-02-15T14:15:17;6.07;;;2.30;;
26407;SDS011;14583;43.604;1.364;2024-02-15T14:17:44;5.30;;;2.63;;
26407;SDS011;14583;43.604;1.364;2024-02-15T14:20:10;6.07;;;2.72;;
26407;SDS011;14583;43.604;1.364;2024-02-15T14:22:43;4.70;;;2.30;;
26407;SDS011;14583;43.604;1.364;2024-02-15T14:25:11;8.00;;;2.37;;
26407;SDS011;14583;43.604;1.364;2024-02-15T14:27:39;7.60;;;2.92;;
26407;SDS011;14583;43.604;1.364;2024-02-15T14:30:06;4.75;;;2.10;;
26407;SDS011;14583;43.604;1.364;2024-02-15T14:32:50;6.90;;;2.58;;
26407;SDS011;14583;43.604;1.364;2024-02-15T14:35:35;9.80;;;2.40;;
26407;SDS011;14583;43.604;1.364;2024-02-15T14:38:07;8.23;;;3.13;;
26407;SDS011;14583;43.604;1.364;2024-02-15T14:40:36;6.63;;;2.35;;
26407;SDS011;14583;43.604;1.364;2024-02-15T14:43:03;6.32;;;2.70;;
26407;SDS011;14583;43.604;1.364;2024-02-15T14:45:39;4.85;;;2.55;;
26407;SDS011;14583;43.604;1.364;2024-02-15T14:48:08;11.18;;;2.60;;
26407;SDS011;14583;43.604;1.364;2024-02-15T14:50:35;5.00;;;2.55;;
26407;SDS011;14583;43.604;1.364;2024-02-15T14:53:01;6.05;;;2.63;;
26407;SDS011;14583;43.604;1.364;2024-02-15T14:55:27;6.43;;;2.47;;
26407;SDS011;14583;43.604;1.364;2024-02-15T14:57:56;5.07;;;3.00;;
26407;SDS011;14583;43.604;1.364;2024-02-15T15:00:22;5.97;;;3.05;;
26407;SDS011;14583;43.604;1.364;2024-02-15T15:02:51;8.32;;;3.05;;
26407;SDS011;14583;43.604;1.364;2024-02-15T15:05:21;10.07;;;3.05;;
26407;SDS011;14583;43.604;1.364;2024-02-15T15:08:06;8.45;;;3.85;;